createdAt,value
2022-11-30T00:00:28.900Z,0.00
2022-11-30T00:01:28.895Z,0.00
2022-11-30T00:02:28.969Z,0.00
2022-11-30T00:03:28.887Z,0.00
2022-11-30T00:04:28.870Z,0.00
2022-11-30T00:05:28.859Z,0.00
2022-11-30T00:06:28.856Z,0.00
2022-11-30T00:07:28.900Z,0.00
2022-11-30T00:08:28.839Z,0.00
2022-11-30T00:09:28.832Z,0.00
2022-11-30T00:10:28.824Z,0.00
2022-11-30T00:11:28.889Z,0.00
2022-11-30T00:12:28.831Z,0.00
2022-11-30T00:13:28.799Z,0.00
2022-11-30T00:14:28.795Z,0.00
2022-11-30T00:15:28.786Z,0.00
2022-11-30T00:16:28.875Z,0.00
2022-11-30T00:17:28.800Z,0.00
2022-11-30T00:18:28.771Z,0.00
2022-11-30T00:19:28.753Z,0.00
2022-11-30T00:20:28.747Z,0.00
2022-11-30T00:21:28.740Z,0.00
2022-11-30T00:22:28.753Z,0.00
2022-11-30T00:23:28.720Z,0.00
2022-11-30T00:24:28.711Z,0.00
2022-11-30T00:25:28.703Z,0.00
2022-11-30T00:26:28.701Z,0.00
2022-11-30T00:27:28.712Z,0.00
2022-11-30T00:28:28.677Z,0.00
2022-11-30T00:29:28.668Z,0.00
2022-11-30T00:30:28.697Z,0.00
2022-11-30T00:31:28.665Z,0.00
2022-11-30T00:32:28.676Z,0.00
2022-11-30T00:33:28.648Z,0.00
2022-11-30T00:34:28.631Z,0.00
2022-11-30T00:35:28.627Z,0.00
2022-11-30T00:36:28.617Z,0.00
2022-11-30T00:37:28.631Z,0.00
2022-11-30T00:38:28.605Z,0.00
2022-11-30T00:39:32.422Z,0.00
2022-11-30T00:40:30.588Z,0.00
2022-11-30T00:41:28.581Z,0.00
2022-11-30T00:42:28.602Z,0.00
2022-11-30T00:43:28.562Z,0.00
2022-11-30T00:44:28.554Z,0.00
2022-11-30T00:45:28.548Z,0.00
2022-11-30T00:46:28.592Z,0.00
2022-11-30T00:47:28.568Z,0.00
2022-11-30T00:48:28.525Z,0.00
2022-11-30T00:49:28.518Z,0.00
2022-11-30T00:50:28.510Z,0.00
2022-11-30T00:51:28.497Z,0.00
2022-11-30T00:52:28.496Z,0.00
2022-11-30T00:53:28.507Z,0.00
2022-11-30T00:54:28.474Z,0.00
2022-11-30T00:55:30.430Z,0.00
2022-11-30T00:56:29.459Z,0.00
2022-11-30T00:57:28.455Z,0.00
2022-11-30T00:58:28.468Z,0.00
2022-11-30T00:59:28.434Z,0.00
2022-11-30T01:00:28.422Z,0.00
2022-11-30T01:01:28.465Z,0.00
2022-11-30T01:02:28.465Z,0.00
2022-11-30T01:03:28.428Z,0.00
2022-11-30T01:04:28.399Z,0.00
2022-11-30T01:05:28.384Z,0.00
2022-11-30T01:06:28.384Z,0.00
2022-11-30T01:07:28.390Z,0.00
2022-11-30T01:08:28.388Z,0.00
2022-11-30T01:09:28.358Z,0.00
2022-11-30T01:10:28.344Z,0.00
2022-11-30T01:11:28.335Z,0.00
2022-11-30T01:12:28.332Z,0.00
2022-11-30T01:13:28.356Z,0.00
2022-11-30T01:14:28.318Z,0.00
2022-11-30T01:15:28.308Z,0.00
2022-11-30T01:16:28.303Z,0.00
2022-11-30T01:17:28.298Z,0.00
2022-11-30T01:18:28.307Z,0.00
2022-11-30T01:19:28.276Z,0.00
2022-11-30T01:20:28.269Z,0.00
2022-11-30T01:21:28.265Z,0.00
2022-11-30T01:22:28.254Z,0.00
2022-11-30T01:23:28.273Z,0.00
2022-11-30T01:24:28.235Z,0.00
2022-11-30T01:25:28.227Z,0.00
2022-11-30T01:26:28.220Z,0.00
2022-11-30T01:27:28.212Z,0.00
2022-11-30T01:28:28.229Z,0.00
2022-11-30T01:29:28.196Z,0.00
2022-11-30T01:30:28.241Z,0.00
2022-11-30T01:31:28.182Z,0.00
2022-11-30T01:32:28.170Z,0.00
2022-11-30T01:33:28.189Z,0.00
2022-11-30T01:34:28.155Z,0.00
2022-11-30T01:35:28.149Z,0.00
2022-11-30T01:36:28.141Z,0.00
2022-11-30T01:37:28.136Z,0.00
2022-11-30T01:38:28.159Z,0.00
2022-11-30T01:39:28.119Z,0.00
2022-11-30T01:40:28.113Z,0.00
2022-11-30T01:41:28.110Z,0.00
2022-11-30T01:42:28.096Z,0.00
2022-11-30T01:43:28.115Z,0.00
2022-11-30T01:44:28.084Z,0.00
2022-11-30T01:45:28.069Z,0.00
2022-11-30T01:46:28.168Z,0.00
2022-11-30T01:47:28.056Z,0.00
2022-11-30T01:48:28.069Z,0.00
2022-11-30T01:49:28.044Z,0.00
2022-11-30T01:50:28.036Z,0.00
2022-11-30T01:51:28.024Z,0.00
2022-11-30T01:52:28.015Z,0.00
2022-11-30T01:53:28.032Z,0.00
2022-11-30T01:54:28.004Z,0.00
2022-11-30T01:55:27.989Z,0.00
2022-11-30T01:56:27.981Z,0.00
2022-11-30T01:57:27.976Z,0.00
2022-11-30T01:58:28.001Z,0.00
2022-11-30T01:59:27.959Z,0.00
2022-11-30T02:00:27.956Z,0.00
2022-11-30T02:01:27.994Z,0.00
2022-11-30T02:02:27.999Z,0.00
2022-11-30T02:03:27.954Z,0.00
2022-11-30T02:04:27.928Z,0.00
2022-11-30T02:05:27.916Z,0.00
2022-11-30T02:06:27.901Z,0.00
2022-11-30T02:07:28.021Z,0.00
2022-11-30T02:08:28.011Z,0.00
2022-11-30T02:09:27.889Z,0.00
2022-11-30T02:10:27.875Z,0.00
2022-11-30T02:11:27.869Z,0.00
2022-11-30T02:12:27.862Z,0.00
2022-11-30T02:13:27.876Z,0.00
2022-11-30T02:14:27.846Z,0.00
2022-11-30T02:15:27.897Z,0.00
2022-11-30T02:16:27.829Z,0.00
2022-11-30T02:17:27.820Z,0.00
2022-11-30T02:18:27.837Z,0.00
2022-11-30T02:19:27.804Z,0.00
2022-11-30T02:20:27.797Z,0.00
2022-11-30T02:21:27.789Z,0.00
2022-11-30T02:22:27.780Z,0.00
2022-11-30T02:23:27.800Z,0.00
2022-11-30T02:24:27.771Z,0.00
2022-11-30T02:25:27.762Z,0.00
2022-11-30T02:26:27.752Z,0.00
2022-11-30T02:27:27.740Z,0.00
2022-11-30T02:28:27.738Z,0.00
2022-11-30T02:29:27.754Z,0.00
2022-11-30T02:30:27.717Z,0.00
2022-11-30T02:31:27.755Z,0.00
2022-11-30T02:32:27.704Z,0.00
2022-11-30T02:33:27.695Z,0.00
2022-11-30T02:34:27.712Z,0.00
2022-11-30T02:35:27.677Z,0.00
2022-11-30T02:36:28.675Z,0.00
2022-11-30T02:37:27.669Z,0.00
2022-11-30T02:38:27.661Z,0.00
2022-11-30T02:39:27.680Z,0.00
2022-11-30T02:40:27.639Z,0.00
2022-11-30T02:41:27.641Z,0.00
2022-11-30T02:42:27.625Z,0.00
2022-11-30T02:43:27.622Z,0.00
2022-11-30T02:44:27.639Z,0.00
2022-11-30T02:45:27.606Z,0.00
2022-11-30T02:46:27.635Z,0.00
2022-11-30T02:47:27.592Z,0.00
2022-11-30T02:48:27.587Z,0.00
2022-11-30T02:49:27.598Z,0.00
2022-11-30T02:50:27.570Z,0.00
2022-11-30T02:51:27.563Z,0.00
2022-11-30T02:52:27.556Z,0.00
2022-11-30T02:53:27.547Z,0.00
2022-11-30T02:54:27.565Z,0.00
2022-11-30T02:55:27.531Z,0.00
2022-11-30T02:56:27.523Z,0.00
2022-11-30T02:57:27.515Z,0.00
2022-11-30T02:58:27.507Z,0.00
2022-11-30T02:59:27.533Z,0.00
2022-11-30T03:00:27.489Z,0.00
2022-11-30T03:01:27.506Z,0.00
2022-11-30T03:02:27.509Z,0.00
2022-11-30T03:03:27.466Z,0.00
2022-11-30T03:04:27.498Z,0.00
2022-11-30T03:05:27.449Z,0.00
2022-11-30T03:06:28.446Z,0.00
2022-11-30T03:07:27.487Z,0.00
2022-11-30T03:08:27.430Z,0.00
2022-11-30T03:09:27.424Z,0.00
2022-11-30T03:10:27.438Z,0.00
2022-11-30T03:11:27.408Z,0.00
2022-11-30T03:12:27.400Z,0.00
2022-11-30T03:13:27.393Z,0.00
2022-11-30T03:14:27.381Z,0.00
2022-11-30T03:15:27.400Z,0.00
2022-11-30T03:16:27.372Z,0.00
2022-11-30T03:17:27.365Z,0.00
2022-11-30T03:18:27.354Z,0.00
2022-11-30T03:19:27.352Z,0.00
2022-11-30T03:20:27.365Z,0.00
2022-11-30T03:21:27.336Z,0.00
2022-11-30T03:22:27.324Z,0.00
2022-11-30T03:23:27.319Z,0.00
2022-11-30T03:24:27.304Z,0.00
2022-11-30T03:25:27.326Z,0.00
2022-11-30T03:26:27.290Z,0.00
2022-11-30T03:27:27.285Z,0.00
2022-11-30T03:28:27.280Z,0.00
2022-11-30T03:29:27.270Z,0.00
2022-11-30T03:30:27.294Z,0.00
2022-11-30T03:31:27.277Z,0.00
2022-11-30T03:32:27.249Z,0.00
2022-11-30T03:33:27.244Z,0.00
2022-11-30T03:34:27.235Z,0.00
2022-11-30T03:35:27.251Z,0.00
2022-11-30T03:36:27.216Z,0.00
2022-11-30T03:37:27.210Z,0.00
2022-11-30T03:38:27.203Z,0.00
2022-11-30T03:39:27.193Z,0.00
2022-11-30T03:40:27.211Z,0.00
2022-11-30T03:41:27.176Z,0.00
2022-11-30T03:42:27.168Z,0.00
2022-11-30T03:43:27.162Z,0.00
2022-11-30T03:44:27.152Z,0.00
2022-11-30T03:45:27.169Z,0.00
2022-11-30T03:46:27.192Z,0.00
2022-11-30T03:47:27.125Z,0.00
2022-11-30T03:48:27.121Z,0.00
2022-11-30T03:49:27.108Z,0.00
2022-11-30T03:50:27.133Z,0.00
2022-11-30T03:51:27.094Z,0.00
2022-11-30T03:52:27.090Z,0.00
2022-11-30T03:53:27.078Z,0.00
2022-11-30T03:54:27.071Z,0.00
2022-11-30T03:55:27.085Z,0.00
2022-11-30T03:56:27.055Z,0.00
2022-11-30T03:57:27.051Z,0.00
2022-11-30T03:58:27.038Z,0.00
2022-11-30T03:59:27.032Z,0.00
2022-11-30T04:00:27.048Z,0.00
2022-11-30T04:01:27.091Z,0.00
2022-11-30T04:02:27.049Z,0.00
2022-11-30T04:03:26.999Z,0.00
2022-11-30T04:04:26.992Z,0.00
2022-11-30T04:05:27.011Z,0.00
2022-11-30T04:06:26.980Z,0.00
2022-11-30T04:07:27.000Z,0.00
2022-11-30T04:08:26.963Z,0.00
2022-11-30T04:09:26.955Z,0.00
2022-11-30T04:10:26.967Z,0.00
2022-11-30T04:11:26.941Z,0.00
2022-11-30T04:12:26.931Z,0.00
2022-11-30T04:13:26.927Z,0.00
2022-11-30T04:14:26.917Z,0.00
2022-11-30T04:15:26.921Z,0.00
2022-11-30T04:16:27.917Z,0.00
2022-11-30T04:17:26.891Z,0.00
2022-11-30T04:18:26.886Z,0.00
2022-11-30T04:19:26.876Z,0.00
2022-11-30T04:20:26.910Z,0.00
2022-11-30T04:21:26.863Z,0.00
2022-11-30T04:22:26.855Z,0.00
2022-11-30T04:23:26.846Z,0.00
2022-11-30T04:24:26.841Z,0.00
2022-11-30T04:25:26.830Z,0.00
2022-11-30T04:26:26.863Z,0.00
2022-11-30T04:27:26.804Z,0.00
2022-11-30T04:28:27.804Z,0.00
2022-11-30T04:29:26.801Z,0.00
2022-11-30T04:30:26.790Z,0.00
2022-11-30T04:31:26.841Z,0.00
2022-11-30T04:32:26.777Z,0.00
2022-11-30T04:33:26.766Z,0.00
2022-11-30T04:34:26.759Z,0.00
2022-11-30T04:35:26.781Z,0.00
2022-11-30T04:36:26.791Z,0.00
2022-11-30T04:37:26.738Z,0.00
2022-11-30T04:38:26.731Z,0.00
2022-11-30T04:39:26.724Z,0.00
2022-11-30T04:40:26.715Z,0.00
2022-11-30T04:41:26.737Z,0.00
2022-11-30T04:42:26.703Z,0.00
2022-11-30T04:43:26.690Z,0.00
2022-11-30T04:44:26.688Z,0.00
2022-11-30T04:45:30.061Z,0.00
2022-11-30T04:46:27.713Z,0.00
2022-11-30T04:47:26.664Z,0.00
2022-11-30T04:48:26.652Z,0.00
2022-11-30T04:49:26.648Z,0.00
2022-11-30T04:50:26.639Z,0.00
2022-11-30T04:51:26.663Z,0.00
2022-11-30T04:52:26.626Z,0.00
2022-11-30T04:53:26.618Z,0.00
2022-11-30T04:54:26.613Z,0.00
2022-11-30T04:55:26.607Z,0.00
2022-11-30T04:56:26.617Z,0.00
2022-11-30T04:57:26.591Z,0.00
2022-11-30T04:58:26.583Z,0.00
2022-11-30T04:59:26.578Z,0.00
2022-11-30T05:00:26.568Z,0.00
2022-11-30T05:01:26.616Z,0.00
2022-11-30T05:02:26.549Z,0.00
2022-11-30T05:03:26.546Z,0.00
2022-11-30T05:04:26.583Z,0.00
2022-11-30T05:05:26.528Z,0.00
2022-11-30T05:06:26.542Z,0.00
2022-11-30T05:07:26.557Z,0.00
2022-11-30T05:08:26.501Z,0.00
2022-11-30T05:09:26.504Z,0.00
2022-11-30T05:10:26.485Z,0.00
2022-11-30T05:11:26.503Z,0.00
2022-11-30T05:12:26.471Z,0.00
2022-11-30T05:13:26.467Z,0.00
2022-11-30T05:14:26.452Z,0.00
2022-11-30T05:15:26.447Z,0.00
2022-11-30T05:16:26.530Z,0.00
2022-11-30T05:17:26.435Z,0.00
2022-11-30T05:18:26.429Z,0.00
2022-11-30T05:19:26.412Z,0.00
2022-11-30T05:20:26.471Z,0.00
2022-11-30T05:21:26.431Z,0.00
2022-11-30T05:22:26.393Z,0.00
2022-11-30T05:23:26.385Z,0.00
2022-11-30T05:24:26.379Z,0.00
2022-11-30T05:25:26.365Z,0.00
2022-11-30T05:26:26.398Z,0.00
2022-11-30T05:27:26.354Z,0.00
2022-11-30T05:28:26.351Z,0.00
2022-11-30T05:29:26.337Z,0.00
2022-11-30T05:30:26.333Z,0.00
2022-11-30T05:31:26.363Z,0.00
2022-11-30T05:32:26.335Z,0.00
2022-11-30T05:33:26.305Z,0.00
2022-11-30T05:34:26.294Z,0.00
2022-11-30T05:35:26.291Z,0.00
2022-11-30T05:36:26.286Z,0.00
2022-11-30T05:37:26.299Z,0.00
2022-11-30T05:38:26.268Z,0.00
2022-11-30T05:39:26.262Z,0.00
2022-11-30T05:40:26.248Z,0.00
2022-11-30T05:41:26.247Z,0.00
2022-11-30T05:42:26.260Z,0.00
2022-11-30T05:43:26.237Z,0.00
2022-11-30T05:44:26.220Z,0.00
2022-11-30T05:45:26.216Z,0.00
2022-11-30T05:46:26.231Z,0.00
2022-11-30T05:47:26.221Z,0.00
2022-11-30T05:48:26.184Z,0.00
2022-11-30T05:49:26.179Z,0.00
2022-11-30T05:50:26.176Z,0.00
2022-11-30T05:51:26.160Z,0.00
2022-11-30T05:52:26.178Z,0.00
2022-11-30T05:53:26.147Z,0.00
2022-11-30T05:54:26.136Z,0.00
2022-11-30T05:55:26.133Z,0.00
2022-11-30T05:56:26.121Z,0.00
2022-11-30T05:57:26.888Z,0.00
2022-11-30T05:58:26.103Z,0.00
2022-11-30T05:59:26.102Z,0.00
2022-11-30T06:00:26.102Z,0.00
2022-11-30T06:01:26.087Z,0.00
2022-11-30T06:02:28.352Z,0.00
2022-11-30T06:03:27.119Z,0.00
2022-11-30T06:04:26.061Z,0.00
2022-11-30T06:05:26.048Z,0.00
2022-11-30T06:06:26.044Z,0.00
2022-11-30T06:07:26.091Z,0.00
2022-11-30T06:08:26.030Z,0.00
2022-11-30T06:09:26.019Z,0.00
2022-11-30T06:10:26.018Z,0.00
2022-11-30T06:11:26.007Z,0.00
2022-11-30T06:12:26.029Z,0.00
2022-11-30T06:13:28.825Z,0.00
2022-11-30T06:14:27.010Z,0.00
2022-11-30T06:15:25.975Z,0.00
2022-11-30T06:16:26.012Z,0.00
2022-11-30T06:17:25.986Z,0.00
2022-11-30T06:18:25.951Z,0.00
2022-11-30T06:19:25.946Z,0.00
2022-11-30T06:20:25.946Z,0.00
2022-11-30T06:21:25.931Z,0.00
2022-11-30T06:22:25.952Z,0.00
2022-11-30T06:23:25.921Z,0.00
2022-11-30T06:24:25.911Z,0.00
2022-11-30T06:25:25.904Z,0.00
2022-11-30T06:26:25.899Z,0.00
2022-11-30T06:27:25.913Z,0.00
2022-11-30T06:28:25.882Z,0.00
2022-11-30T06:29:25.870Z,0.00
2022-11-30T06:30:25.898Z,0.00
2022-11-30T06:31:25.875Z,0.00
2022-11-30T06:32:25.871Z,0.00
2022-11-30T06:33:25.840Z,0.00
2022-11-30T06:34:25.833Z,0.00
2022-11-30T06:35:25.829Z,0.00
2022-11-30T06:36:27.226Z,0.00
2022-11-30T06:37:25.834Z,0.00
2022-11-30T06:38:25.800Z,0.00
2022-11-30T06:39:50.004Z,0.00
2022-11-30T06:40:27.784Z,0.00
2022-11-30T06:41:25.774Z,0.00
2022-11-30T06:42:25.789Z,0.00
2022-11-30T06:43:25.760Z,0.00
2022-11-30T06:44:26.757Z,0.00
2022-11-30T06:45:25.799Z,0.00
2022-11-30T06:46:25.740Z,0.00
2022-11-30T06:47:25.745Z,0.00
2022-11-30T06:48:26.725Z,0.00
2022-11-30T06:49:25.717Z,0.00
2022-11-30T06:50:25.718Z,0.00
2022-11-30T06:51:25.702Z,0.00
2022-11-30T06:52:25.718Z,0.00
2022-11-30T06:53:25.682Z,0.00
2022-11-30T06:54:25.681Z,0.00
2022-11-30T06:55:25.670Z,0.00
2022-11-30T06:56:25.674Z,0.00
2022-11-30T06:57:25.678Z,0.00
2022-11-30T06:58:25.646Z,0.00
2022-11-30T06:59:25.645Z,0.00
2022-11-30T07:00:25.633Z,0.00
2022-11-30T07:01:25.666Z,0.00
2022-11-30T07:02:25.640Z,0.00
2022-11-30T07:03:25.607Z,0.00
2022-11-30T07:04:25.633Z,0.00
2022-11-30T07:05:25.583Z,0.00
2022-11-30T07:06:25.579Z,0.00
2022-11-30T07:07:25.629Z,0.00
2022-11-30T07:08:25.564Z,0.00
2022-11-30T07:09:25.553Z,0.00
2022-11-30T07:10:25.553Z,0.00
2022-11-30T07:11:25.543Z,0.00
2022-11-30T07:12:25.557Z,0.00
2022-11-30T07:13:25.523Z,0.00
2022-11-30T07:14:25.519Z,0.00
2022-11-30T07:15:25.655Z,0.00
2022-11-30T07:16:25.527Z,0.00
2022-11-30T07:17:25.521Z,0.00
2022-11-30T07:18:31.493Z,0.00
2022-11-30T07:19:27.484Z,5.62
2022-11-30T07:20:25.481Z,5.62
2022-11-30T07:21:25.466Z,5.62
2022-11-30T07:22:25.480Z,5.62
2022-11-30T07:23:25.453Z,5.62
2022-11-30T07:24:25.450Z,5.62
2022-11-30T07:25:25.434Z,5.62
2022-11-30T07:26:25.446Z,5.62
2022-11-30T07:27:25.457Z,5.62
2022-11-30T07:28:25.413Z,5.62
2022-11-30T07:29:25.405Z,5.62
2022-11-30T07:30:25.398Z,5.62
2022-11-30T07:31:25.487Z,5.62
2022-11-30T07:32:25.407Z,5.62
2022-11-30T07:33:25.374Z,5.62
2022-11-30T07:34:25.366Z,5.62
2022-11-30T07:35:25.358Z,5.62
2022-11-30T07:36:25.354Z,11.25
2022-11-30T07:37:25.370Z,11.25
2022-11-30T07:38:25.339Z,11.25
2022-11-30T07:39:25.328Z,11.25
2022-11-30T07:40:25.322Z,11.25
2022-11-30T07:41:25.315Z,11.25
2022-11-30T07:42:25.303Z,11.25
2022-11-30T07:43:25.319Z,11.25
2022-11-30T07:44:25.298Z,11.25
2022-11-30T07:45:25.279Z,11.25
2022-11-30T07:46:25.274Z,11.25
2022-11-30T07:47:25.265Z,11.25
2022-11-30T07:48:25.286Z,11.25
2022-11-30T07:49:25.254Z,16.88
2022-11-30T07:50:25.247Z,16.88
2022-11-30T07:51:25.239Z,16.88
2022-11-30T07:52:25.232Z,16.88
2022-11-30T07:53:25.253Z,16.88
2022-11-30T07:54:25.217Z,16.88
2022-11-30T07:55:25.220Z,16.88
2022-11-30T07:56:25.209Z,16.88
2022-11-30T07:57:25.194Z,16.88
2022-11-30T07:58:25.212Z,16.88
2022-11-30T07:59:25.184Z,22.50
2022-11-30T08:00:25.221Z,22.50
2022-11-30T08:01:25.265Z,22.50
2022-11-30T08:02:25.253Z,22.50
2022-11-30T08:03:25.177Z,22.50
2022-11-30T08:04:25.191Z,22.50
2022-11-30T08:05:25.138Z,28.12
2022-11-30T08:06:25.130Z,28.12
2022-11-30T08:07:25.224Z,28.12
2022-11-30T08:08:25.147Z,28.12
2022-11-30T08:09:25.110Z,28.12
2022-11-30T08:10:25.185Z,28.12
2022-11-30T08:11:25.092Z,28.12
2022-11-30T08:12:25.082Z,28.12
2022-11-30T08:13:25.099Z,28.12
2022-11-30T08:14:25.065Z,33.75
2022-11-30T08:15:30.800Z,33.75
2022-11-30T08:16:27.122Z,33.75
2022-11-30T08:17:25.045Z,33.75
2022-11-30T08:18:25.062Z,39.38
2022-11-30T08:19:25.029Z,39.38
2022-11-30T08:20:25.142Z,39.38
2022-11-30T08:21:25.017Z,39.38
2022-11-30T08:22:25.009Z,45.00
2022-11-30T08:23:25.027Z,45.00
2022-11-30T08:24:25.019Z,45.00
2022-11-30T08:25:24.985Z,45.00
2022-11-30T08:26:24.981Z,45.00
2022-11-30T08:27:24.978Z,45.00
2022-11-30T08:28:24.993Z,50.62
2022-11-30T08:29:24.954Z,50.62
2022-11-30T08:30:29.342Z,50.62
2022-11-30T08:31:27.003Z,50.62
2022-11-30T08:32:24.934Z,56.25
2022-11-30T08:33:24.948Z,56.25
2022-11-30T08:34:24.919Z,56.25
2022-11-30T08:35:24.921Z,56.25
2022-11-30T08:36:24.903Z,61.88
2022-11-30T08:37:24.895Z,61.88
2022-11-30T08:38:24.912Z,61.88
2022-11-30T08:39:24.879Z,61.88
2022-11-30T08:40:24.873Z,67.50
2022-11-30T08:41:24.870Z,67.50
2022-11-30T08:42:24.857Z,67.50
2022-11-30T08:43:24.876Z,67.50
2022-11-30T08:44:24.844Z,67.50
2022-11-30T08:45:24.837Z,73.12
2022-11-30T08:47:26.842Z,73.12
2022-11-30T08:48:24.841Z,73.12
2022-11-30T08:49:25.376Z,73.12
2022-11-30T08:50:24.800Z,73.12
2022-11-30T08:51:24.794Z,73.12
2022-11-30T08:52:24.788Z,73.12
2022-11-30T08:53:24.801Z,73.12
2022-11-30T08:54:24.769Z,73.12
2022-11-30T08:55:24.761Z,73.12
2022-11-30T08:56:24.755Z,73.12
2022-11-30T08:57:24.750Z,73.12
2022-11-30T08:58:24.763Z,73.12
2022-11-30T08:59:24.733Z,73.12
2022-11-30T09:00:24.722Z,73.12
2022-11-30T09:01:27.098Z,73.12
2022-11-30T09:02:26.735Z,73.12
2022-11-30T09:03:24.731Z,78.75
2022-11-30T09:04:24.697Z,78.75
2022-11-30T09:05:24.683Z,84.38
2022-11-30T09:06:24.675Z,84.38
2022-11-30T09:07:24.742Z,84.38
2022-11-30T09:08:24.687Z,84.38
2022-11-30T09:09:24.656Z,84.38
2022-11-30T09:10:24.650Z,84.38
2022-11-30T09:11:24.640Z,84.38
2022-11-30T09:12:24.626Z,84.38
2022-11-30T09:13:24.641Z,84.38
2022-11-30T09:14:24.613Z,90.00
2022-11-30T09:15:24.603Z,90.00
2022-11-30T09:16:24.633Z,90.00
2022-11-30T09:17:24.585Z,95.62
2022-11-30T09:18:24.608Z,101.25
2022-11-30T09:19:24.571Z,106.88
2022-11-30T09:20:25.574Z,112.50
2022-11-30T09:21:24.563Z,112.50
2022-11-30T09:22:25.552Z,118.12
2022-11-30T09:23:24.567Z,118.12
2022-11-30T09:24:24.539Z,118.12
2022-11-30T09:25:24.531Z,118.12
2022-11-30T09:26:24.527Z,118.12
2022-11-30T09:27:24.519Z,112.50
2022-11-30T09:28:24.543Z,112.50
2022-11-30T09:29:24.509Z,112.50
2022-11-30T09:30:24.680Z,106.88
2022-11-30T09:31:24.488Z,106.88
2022-11-30T09:32:24.473Z,106.88
2022-11-30T09:33:24.489Z,106.88
2022-11-30T09:34:24.455Z,106.88
2022-11-30T09:35:25.408Z,106.88
2022-11-30T09:36:24.444Z,101.25
2022-11-30T09:37:24.433Z,106.88
2022-11-30T09:38:24.450Z,101.25
2022-11-30T09:39:24.408Z,101.25
2022-11-30T09:40:25.412Z,95.62
2022-11-30T09:41:24.401Z,95.62
2022-11-30T09:42:24.399Z,90.00
2022-11-30T09:43:24.418Z,90.00
2022-11-30T09:44:24.381Z,90.00
2022-11-30T09:45:24.377Z,90.00
2022-11-30T09:46:24.401Z,90.00
2022-11-30T09:47:27.512Z,95.62
2022-11-30T09:48:26.386Z,95.62
2022-11-30T09:49:24.342Z,95.62
2022-11-30T09:50:24.334Z,95.62
2022-11-30T09:51:24.327Z,95.62
2022-11-30T09:52:24.344Z,95.62
2022-11-30T09:53:29.099Z,101.25
2022-11-30T09:54:26.322Z,101.25
2022-11-30T09:55:24.294Z,101.25
2022-11-30T09:56:24.916Z,101.25
2022-11-30T09:57:24.286Z,101.25
2022-11-30T09:58:24.274Z,101.25
2022-11-30T09:59:24.290Z,106.88
2022-11-30T10:00:24.257Z,106.88
2022-11-30T10:01:24.321Z,106.88
2022-11-30T10:02:24.390Z,112.50
2022-11-30T10:03:24.288Z,112.50
2022-11-30T10:04:24.262Z,118.12
2022-11-30T10:05:24.226Z,123.75
2022-11-30T10:06:24.213Z,129.38
2022-11-30T10:07:24.320Z,135.00
2022-11-30T10:08:24.198Z,140.62
2022-11-30T10:09:24.218Z,140.62
2022-11-30T10:10:32.351Z,140.62
2022-11-30T10:11:26.173Z,140.62
2022-11-30T10:12:24.166Z,135.00
2022-11-30T10:13:24.157Z,135.00
2022-11-30T10:14:24.179Z,129.38
2022-11-30T10:15:24.144Z,129.38
2022-11-30T10:16:24.208Z,129.38
2022-11-30T10:17:24.123Z,135.00
2022-11-30T10:18:24.117Z,140.62
2022-11-30T10:19:24.133Z,146.25
2022-11-30T10:20:24.103Z,157.50
2022-11-30T10:21:24.094Z,157.50
2022-11-30T10:22:24.085Z,163.12
2022-11-30T10:23:24.076Z,163.12
2022-11-30T10:24:24.102Z,157.50
2022-11-30T10:25:24.060Z,157.50
2022-11-30T10:26:25.057Z,157.50
2022-11-30T10:27:24.048Z,157.50
2022-11-30T10:28:46.458Z,157.50
2022-11-30T10:29:26.056Z,157.50
2022-11-30T10:30:24.026Z,163.12
2022-11-30T10:31:24.092Z,163.12
2022-11-30T10:32:24.009Z,163.12
2022-11-30T10:33:23.997Z,163.12
2022-11-30T10:34:24.019Z,168.75
2022-11-30T10:35:23.989Z,168.75
2022-11-30T10:36:23.976Z,168.75
2022-11-30T10:37:23.970Z,168.75
2022-11-30T10:38:23.968Z,163.12
2022-11-30T10:39:23.983Z,163.12
2022-11-30T10:40:23.944Z,163.12
2022-11-30T10:41:23.931Z,163.12
2022-11-30T10:42:24.934Z,163.12
2022-11-30T10:43:23.924Z,157.50
2022-11-30T10:44:23.946Z,157.50
2022-11-30T10:45:23.909Z,157.50
2022-11-30T10:46:23.927Z,157.50
2022-11-30T10:47:23.888Z,157.50
2022-11-30T10:48:23.893Z,157.50
2022-11-30T10:49:23.875Z,163.12
2022-11-30T10:50:23.895Z,168.75
2022-11-30T10:51:23.858Z,174.38
2022-11-30T10:52:23.855Z,174.38
2022-11-30T10:53:23.860Z,180.00
2022-11-30T10:54:23.839Z,185.62
2022-11-30T10:55:23.851Z,185.62
2022-11-30T10:56:24.822Z,191.25
2022-11-30T10:57:23.810Z,191.25
2022-11-30T10:58:23.842Z,196.88
2022-11-30T10:59:23.800Z,196.88
2022-11-30T11:00:23.816Z,196.88
2022-11-30T11:01:23.859Z,202.50
2022-11-30T11:02:23.820Z,202.50
2022-11-30T11:03:23.772Z,202.50
2022-11-30T11:04:23.837Z,208.12
2022-11-30T11:05:23.783Z,213.75
2022-11-30T11:06:23.748Z,219.38
2022-11-30T11:07:23.859Z,219.38
2022-11-30T11:08:23.774Z,225.00
2022-11-30T11:09:23.726Z,225.00
2022-11-30T11:10:23.747Z,225.00
2022-11-30T11:11:23.710Z,225.00
2022-11-30T11:12:23.711Z,219.38
2022-11-30T11:13:23.694Z,219.38
2022-11-30T11:14:23.695Z,219.38
2022-11-30T11:15:23.705Z,219.38
2022-11-30T11:16:23.780Z,219.38
2022-11-30T11:17:23.679Z,219.38
2022-11-30T11:18:23.668Z,213.75
2022-11-30T11:19:23.651Z,213.75
2022-11-30T11:20:23.673Z,208.12
2022-11-30T11:21:23.632Z,202.50
2022-11-30T11:22:23.629Z,196.88
2022-11-30T11:23:23.632Z,185.62
2022-11-30T11:24:23.620Z,174.38
2022-11-30T11:25:23.642Z,174.38
2022-11-30T11:26:23.596Z,163.12
2022-11-30T11:27:23.589Z,157.50
2022-11-30T11:28:23.581Z,157.50
2022-11-30T11:29:23.573Z,157.50
2022-11-30T11:30:23.568Z,151.88
2022-11-30T11:31:23.605Z,146.25
2022-11-30T11:32:23.551Z,140.62
2022-11-30T11:33:23.564Z,135.00
2022-11-30T11:34:23.549Z,129.38
2022-11-30T11:35:23.584Z,129.38
2022-11-30T11:36:23.522Z,129.38
2022-11-30T11:37:23.514Z,129.38
2022-11-30T11:38:23.513Z,129.38
2022-11-30T11:39:23.504Z,135.00
2022-11-30T11:40:23.490Z,129.38
2022-11-30T11:41:23.509Z,129.38
2022-11-30T11:42:23.477Z,123.75
2022-11-30T11:43:23.469Z,112.50
2022-11-30T11:44:23.469Z,112.50
2022-11-30T11:45:23.469Z,106.88
2022-11-30T11:46:23.520Z,106.88
2022-11-30T11:47:23.437Z,101.25
2022-11-30T11:48:28.726Z,101.25
2022-11-30T11:49:25.416Z,101.25
2022-11-30T11:50:43.237Z,101.25
2022-11-30T11:51:25.434Z,101.25
2022-11-30T11:52:23.403Z,101.25
2022-11-30T11:53:23.434Z,95.62
2022-11-30T11:54:23.388Z,95.62
2022-11-30T11:55:23.388Z,95.62
2022-11-30T11:56:23.392Z,90.00
2022-11-30T11:57:23.368Z,90.00
2022-11-30T11:58:23.358Z,90.00
2022-11-30T11:59:25.791Z,84.38
2022-11-30T12:00:24.339Z,84.38
2022-11-30T12:01:40.691Z,84.38
2022-11-30T12:02:25.357Z,84.38
2022-11-30T12:03:23.317Z,84.38
2022-11-30T12:04:23.337Z,84.38
2022-11-30T12:05:23.299Z,84.38
2022-11-30T12:06:23.318Z,84.38
2022-11-30T12:07:23.331Z,84.38
2022-11-30T12:08:23.305Z,84.38
2022-11-30T12:09:23.269Z,84.38
2022-11-30T12:10:50.812Z,78.75
2022-11-30T12:11:25.287Z,73.12
2022-11-30T12:12:23.244Z,73.12
2022-11-30T12:13:23.236Z,67.50
2022-11-30T12:14:23.230Z,67.50
2022-11-30T12:15:23.228Z,61.88
2022-11-30T12:16:23.246Z,61.88
2022-11-30T12:17:23.228Z,61.88
2022-11-30T12:18:24.391Z,61.88
2022-11-30T12:19:24.186Z,61.88
2022-11-30T12:20:23.179Z,61.88
2022-11-30T12:21:23.174Z,61.88
2022-11-30T12:22:23.191Z,61.88
2022-11-30T12:23:23.158Z,61.88
2022-11-30T12:24:23.148Z,67.50
2022-11-30T12:25:23.153Z,67.50
2022-11-30T12:26:23.129Z,67.50
2022-11-30T12:27:23.177Z,67.50
2022-11-30T12:28:23.119Z,61.88
2022-11-30T12:29:23.111Z,61.88
2022-11-30T12:30:23.099Z,61.88
2022-11-30T12:31:23.128Z,61.88
2022-11-30T12:32:23.109Z,61.88
2022-11-30T12:33:25.129Z,61.88
2022-11-30T12:34:24.073Z,56.25
2022-11-30T12:35:23.063Z,56.25
2022-11-30T12:36:23.063Z,61.88
2022-11-30T12:37:23.079Z,61.88
2022-11-30T12:38:23.038Z,61.88
2022-11-30T12:39:23.038Z,61.88
2022-11-30T12:40:23.024Z,61.88
2022-11-30T12:41:23.017Z,61.88
2022-11-30T12:42:23.032Z,61.88
2022-11-30T12:43:23.003Z,67.50
2022-11-30T12:44:22.991Z,73.12
2022-11-30T12:45:22.984Z,73.12
2022-11-30T12:46:23.036Z,73.12
2022-11-30T12:47:22.994Z,73.12
2022-11-30T12:48:22.959Z,78.75
2022-11-30T12:49:22.954Z,78.75
2022-11-30T12:50:22.947Z,78.75
2022-11-30T12:51:29.385Z,78.75
2022-11-30T12:52:24.952Z,78.75
2022-11-30T12:53:23.556Z,78.75
2022-11-30T12:54:22.920Z,78.75
2022-11-30T12:55:22.905Z,78.75
2022-11-30T12:56:22.903Z,78.75
2022-11-30T12:57:22.914Z,78.75
2022-11-30T12:58:22.883Z,78.75
2022-11-30T12:59:22.872Z,78.75
2022-11-30T13:00:22.876Z,78.75
2022-11-30T13:01:22.903Z,78.75
2022-11-30T13:02:22.947Z,78.75
2022-11-30T13:03:22.845Z,78.75